sensor_id;sensor_type;location;lat;lon;timestamp;P1;durP1;ratioP1;P2;durP2;ratioP2
2289;SDS011;1153;47.986;7.898;2024-01-15T00:02:11;23.10;;;9.70;;
2289;SDS011;1153;47.986;7.898;2024-01-15T00:04:39;26.00;;;9.13;;
2289;SDS011;1153;47.986;7.898;2024-01-15T00:07:05;24.17;;;8.60;;
2289;SDS011;1153;47.986;7.898;2024-01-15T00:09:30;30.47;;;8.70;;
2289;SDS011;1153;47.986;7.898;2024-01-15T00:11:55;22.50;;;10.35;;
2289;SDS011;1153;47.986;7.898;2024-01-15T00:14:21;21.02;;;10.00;;
2289;SDS011;1153;47.986;7.898;2024-01-15T00:16:46;25.27;;;9.40;;
2289;SDS011;1153;47.986;7.898;2024-01-15T00:19:11;27.83;;;9.90;;
2289;SDS011;1153;47.986;7.898;2024-01-15T00:21:36;37.20;;;10.13;;
2289;SDS011;1153;47.986;7.898;2024-01-15T00:24:01;19.65;;;9.52;;
2289;SDS011;1153;47.986;7.898;2024-01-15T00:26:27;25.27;;;12.77;;
2289;SDS011;1153;47.986;7.898;2024-01-15T00:28:52;28.73;;;10.60;;
2289;SDS011;1153;47.986;7.898;2024-01-15T00:31:17;28.10;;;10.60;;
2289;SDS011;1153;47.986;7.898;2024-01-15T00:33:43;27.57;;;9.00;;
2289;SDS011;1153;47.986;7.898;2024-01-15T00:36:08;27.93;;;11.43;;
2289;SDS011;1153;47.986;7.898;2024-01-15T00:38:33;20.70;;;8.90;;
2289;SDS011;1153;47.986;7.898;2024-01-15T00:40:58;27.95;;;11.23;;
2289;SDS011;1153;47.986;7.898;2024-01-15T00:43:23;33.45;;;9.45;;
2289;SDS011;1153;47.986;7.898;2024-01-15T00:45:48;36.80;;;11.27;;
2289;SDS011;1153;47.986;7.898;2024-01-15T00:48:13;32.17;;;9.98;;
2289;SDS011;1153;47.986;7.898;2024-01-15T00:50:39;27.63;;;9.93;;
2289;SDS011;1153;47.986;7.898;2024-01-15T00:53:04;26.47;;;9.60;;
2289;SDS011;1153;47.986;7.898;2024-01-15T00:55:29;22.95;;;8.88;;
2289;SDS011;1153;47.986;7.898;2024-01-15T00:57:54;23.30;;;8.97;;
2289;SDS011;1153;47.986;7.898;2024-01-15T01:00:19;25.07;;;8.13;;
2289;SDS011;1153;47.986;7.898;2024-01-15T01:02:44;29.83;;;9.97;;
2289;SDS011;1153;47.986;7.898;2024-01-15T01:05:10;30.63;;;8.63;;
2289;SDS011;1153;47.986;7.898;2024-01-15T01:07:35;17.43;;;6.90;;
2289;SDS011;1153;47.986;7.898;2024-01-15T01:10:00;25.47;;;10.13;;
2289;SDS011;1153;47.986;7.898;2024-01-15T01:12:26;37.90;;;10.80;;
2289;SDS011;1153;47.986;7.898;2024-01-15T01:14:51;29.80;;;9.30;;
2289;SDS011;1153;47.986;7.898;2024-01-15T01:17:16;21.07;;;10.30;;
2289;SDS011;1153;47.986;7.898;2024-01-15T01:19:41;32.53;;;9.35;;
2289;SDS011;1153;47.986;7.898;2024-01-15T01:22:06;25.83;;;9.90;;
2289;SDS011;1153;47.986;7.898;2024-01-15T01:24:31;36.67;;;10.43;;
2289;SDS011;1153;47.986;7.898;2024-01-15T01:26:57;32.33;;;9.60;;
2289;SDS011;1153;47.986;7.898;2024-01-15T01:29:22;25.27;;;8.80;;
2289;SDS011;1153;47.986;7.898;2024-01-15T01:31:48;30.90;;;10.50;;
2289;SDS011;1153;47.986;7.898;2024-01-15T01:34:13;26.40;;;10.10;;
2289;SDS011;1153;47.986;7.898;2024-01-15T01:36:39;22.50;;;10.20;;
2289;SDS011;1153;47.986;7.898;2024-01-15T01:39:04;30.13;;;11.47;;
2289;SDS011;1153;47.986;7.898;2024-01-15T01:41:30;24.97;;;9.87;;
2289;SDS011;1153;47.986;7.898;2024-01-15T01:43:55;28.83;;;9.83;;
2289;SDS011;1153;47.986;7.898;2024-01-15T01:46:20;23.37;;;8.80;;
2289;SDS011;1153;47.986;7.898;2024-01-15T01:48:45;25.27;;;10.13;;
2289;SDS011;1153;47.986;7.898;2024-01-15T01:51:11;23.10;;;9.90;;
2289;SDS011;1153;47.986;7.898;2024-01-15T01:53:36;32.93;;;10.93;;
2289;SDS011;1153;47.986;7.898;2024-01-15T01:56:03;23.53;;;8.90;;
2289;SDS011;1153;47.986;7.898;2024-01-15T01:58:28;27.43;;;8.57;;
2289;SDS011;1153;47.986;7.898;2024-01-15T02:00:54;31.33;;;8.10;;
2289;SDS011;1153;47.986;7.898;2024-01-15T02:03:19;22.83;;;9.03;;
2289;SDS011;1153;47.986;7.898;2024-01-15T02:05:45;33.47;;;10.87;;
2289;SDS011;1153;47.986;7.898;2024-01-15T02:08:11;17.17;;;8.30;;
2289;SDS011;1153;47.986;7.898;2024-01-15T02:10:36;36.17;;;11.00;;
2289;SDS011;1153;47.986;7.898;2024-01-15T02:13:01;20.07;;;8.17;;
2289;SDS011;1153;47.986;7.898;2024-01-15T02:15:27;25.57;;;9.07;;
2289;SDS011;1153;47.986;7.898;2024-01-15T02:17:58;21.52;;;9.82;;
2289;SDS011;1153;47.986;7.898;2024-01-15T02:20:24;23.43;;;9.57;;
2289;SDS011;1153;47.986;7.898;2024-01-15T02:22:49;35.10;;;11.50;;
2289;SDS011;1153;47.986;7.898;2024-01-15T02:25:14;25.93;;;10.20;;
2289;SDS011;1153;47.986;7.898;2024-01-15T02:27:39;32.63;;;8.45;;
2289;SDS011;1153;47.986;7.898;2024-01-15T02:30:05;32.33;;;11.00;;
2289;SDS011;1153;47.986;7.898;2024-01-15T02:32:31;21.90;;;9.40;;
2289;SDS011;1153;47.986;7.898;2024-01-15T02:34:56;33.73;;;11.30;;
2289;SDS011;1153;47.986;7.898;2024-01-15T02:37:21;21.37;;;9.00;;
2289;SDS011;1153;47.986;7.898;2024-01-15T02:39:47;28.42;;;9.70;;
2289;SDS011;1153;47.986;7.898;2024-01-15T02:42:12;19.77;;;10.17;;
2289;SDS011;1153;47.986;7.898;2024-01-15T02:44:37;29.87;;;11.17;;
2289;SDS011;1153;47.986;7.898;2024-01-15T02:47:02;29.77;;;11.43;;
2289;SDS011;1153;47.986;7.898;2024-01-15T02:49:27;30.87;;;9.70;;
2289;SDS011;1153;47.986;7.898;2024-01-15T02:51:52;23.23;;;9.60;;
2289;SDS011;1153;47.986;7.898;2024-01-15T02:54:18;36.10;;;12.20;;
2289;SDS011;1153;47.986;7.898;2024-01-15T02:56:43;25.40;;;11.20;;
2289;SDS011;1153;47.986;7.898;2024-01-15T02:59:08;24.05;;;8.52;;
2289;SDS011;1153;47.986;7.898;2024-01-15T03:01:33;23.97;;;11.00;;
2289;SDS011;1153;47.986;7.898;2024-01-15T03:03:58;36.87;;;12.97;;
2289;SDS011;1153;47.986;7.898;2024-01-15T03:06:23;28.42;;;9.18;;
2289;SDS011;1153;47.986;7.898;2024-01-15T03:08:49;29.52;;;9.23;;
2289;SDS011;1153;47.986;7.898;2024-01-15T03:11:14;25.10;;;10.07;;
2289;SDS011;1153;47.986;7.898;2024-01-15T03:13:40;28.00;;;11.32;;
2289;SDS011;1153;47.986;7.898;2024-01-15T03:16:05;24.93;;;10.10;;
2289;SDS011;1153;47.986;7.898;2024-01-15T03:18:31;28.70;;;10.20;;
2289;SDS011;1153;47.986;7.898;2024-01-15T03:20:56;29.10;;;10.37;;
2289;SDS011;1153;47.986;7.898;2024-01-15T03:23:21;24.07;;;10.37;;
2289;SDS011;1153;47.986;7.898;2024-01-15T03:25:46;26.93;;;10.10;;
2289;SDS011;1153;47.986;7.898;2024-01-15T03:28:12;28.55;;;9.18;;
2289;SDS011;1153;47.986;7.898;2024-01-15T03:30:37;32.70;;;10.87;;
2289;SDS011;1153;47.986;7.898;2024-01-15T03:33:02;30.40;;;11.00;;
2289;SDS011;1153;47.986;7.898;2024-01-15T03:35:27;23.03;;;9.77;;
2289;SDS011;1153;47.986;7.898;2024-01-15T03:37:54;24.67;;;9.50;;
2289;SDS011;1153;47.986;7.898;2024-01-15T03:40:19;26.90;;;9.93;;
2289;SDS011;1153;47.986;7.898;2024-01-15T03:42:44;23.70;;;8.17;;
2289;SDS011;1153;47.986;7.898;2024-01-15T03:45:09;26.10;;;12.23;;
2289;SDS011;1153;47.986;7.898;2024-01-15T03:47:35;38.10;;;10.53;;
2289;SDS011;1153;47.986;7.898;2024-01-15T03:50:00;32.10;;;9.90;;
2289;SDS011;1153;47.986;7.898;2024-01-15T03:52:25;36.70;;;12.60;;
2289;SDS011;1153;47.986;7.898;2024-01-15T03:54:50;33.60;;;9.87;;
2289;SDS011;1153;47.986;7.898;2024-01-15T03:57:15;33.87;;;11.07;;
2289;SDS011;1153;47.986;7.898;2024-01-15T03:59:40;32.37;;;11.17;;
2289;SDS011;1153;47.986;7.898;2024-01-15T04:02:06;37.53;;;11.73;;
2289;SDS011;1153;47.986;7.898;2024-01-15T04:04:31;35.63;;;11.85;;
2289;SDS011;1153;47.986;7.898;2024-01-15T04:06:57;23.60;;;10.87;;
2289;SDS011;1153;47.986;7.898;2024-01-15T04:09:22;28.38;;;12.98;;
2289;SDS011;1153;47.986;7.898;2024-01-15T04:11:47;25.10;;;10.27;;
2289;SDS011;1153;47.986;7.898;2024-01-15T04:14:12;30.13;;;9.47;;
2289;SDS011;1153;47.986;7.898;2024-01-15T04:16:37;28.53;;;10.97;;
2289;SDS011;1153;47.986;7.898;2024-01-15T04:19:03;36.93;;;11.03;;
2289;SDS011;1153;47.986;7.898;2024-01-15T04:21:28;33.00;;;11.40;;
2289;SDS011;1153;47.986;7.898;2024-01-15T04:23:53;42.90;;;11.88;;
2289;SDS011;1153;47.986;7.898;2024-01-15T04:26:18;26.60;;;10.20;;
2289;SDS011;1153;47.986;7.898;2024-01-15T04:28:43;37.22;;;9.57;;
2289;SDS011;1153;47.986;7.898;2024-01-15T04:31:08;41.80;;;10.43;;
2289;SDS011;1153;47.986;7.898;2024-01-15T04:33:34;32.33;;;11.13;;
2289;SDS011;1153;47.986;7.898;2024-01-15T04:36:04;35.43;;;10.00;;
2289;SDS011;1153;47.986;7.898;2024-01-15T04:38:30;37.00;;;9.43;;
2289;SDS011;1153;47.986;7.898;2024-01-15T04:40:55;22.77;;;8.33;;
2289;SDS011;1153;47.986;7.898;2024-01-15T04:43:20;20.87;;;7.47;;
2289;SDS011;1153;47.986;7.898;2024-01-15T04:45:45;32.80;;;11.30;;
2289;SDS011;1153;47.986;7.898;2024-01-15T04:48:11;23.13;;;9.87;;
2289;SDS011;1153;47.986;7.898;2024-01-15T04:50:36;28.90;;;9.80;;
2289;SDS011;1153;47.986;7.898;2024-01-15T04:53:01;33.10;;;10.30;;
2289;SDS011;1153;47.986;7.898;2024-01-15T04:55:26;28.07;;;9.33;;
2289;SDS011;1153;47.986;7.898;2024-01-15T04:57:51;39.05;;;12.50;;
2289;SDS011;1153;47.986;7.898;2024-01-15T05:00:16;22.30;;;10.65;;
2289;SDS011;1153;47.986;7.898;2024-01-15T05:02:42;30.07;;;10.93;;
2289;SDS011;1153;47.986;7.898;2024-01-15T05:05:07;32.07;;;10.43;;
2289;SDS011;1153;47.986;7.898;2024-01-15T05:07:32;33.80;;;12.03;;
2289;SDS011;1153;47.986;7.898;2024-01-15T05:09:57;24.47;;;8.97;;
2289;SDS011;1153;47.986;7.898;2024-01-15T05:12:23;48.63;;;12.13;;
2289;SDS011;1153;47.986;7.898;2024-01-15T05:14:48;33.40;;;10.60;;
2289;SDS011;1153;47.986;7.898;2024-01-15T05:17:13;37.17;;;13.25;;
2289;SDS011;1153;47.986;7.898;2024-01-15T05:19:38;38.72;;;12.88;;
2289;SDS011;1153;47.986;7.898;2024-01-15T05:22:03;28.08;;;10.25;;
2289;SDS011;1153;47.986;7.898;2024-01-15T05:24:28;32.42;;;12.23;;
2289;SDS011;1153;47.986;7.898;2024-01-15T05:26:53;26.93;;;10.40;;
2289;SDS011;1153;47.986;7.898;2024-01-15T05:29:19;32.10;;;12.17;;
2289;SDS011;1153;47.986;7.898;2024-01-15T05:31:44;31.98;;;11.40;;
2289;SDS011;1153;47.986;7.898;2024-01-15T05:34:09;25.57;;;9.93;;
2289;SDS011;1153;47.986;7.898;2024-01-15T05:36:34;26.03;;;10.43;;
2289;SDS011;1153;47.986;7.898;2024-01-15T05:38:59;29.05;;;10.48;;
2289;SDS011;1153;47.986;7.898;2024-01-15T05:41:24;27.47;;;11.70;;
2289;SDS011;1153;47.986;7.898;2024-01-15T05:43:50;39.00;;;10.10;;
2289;SDS011;1153;47.986;7.898;2024-01-15T05:46:15;28.50;;;11.03;;
2289;SDS011;1153;47.986;7.898;2024-01-15T05:48:40;22.83;;;8.27;;
2289;SDS011;1153;47.986;7.898;2024-01-15T05:51:06;26.50;;;8.50;;
2289;SDS011;1153;47.986;7.898;2024-01-15T05:53:31;33.05;;;11.45;;
2289;SDS011;1153;47.986;7.898;2024-01-15T05:55:56;18.75;;;8.63;;
2289;SDS011;1153;47.986;7.898;2024-01-15T05:58:21;26.10;;;9.37;;
2289;SDS011;1153;47.986;7.898;2024-01-15T06:00:47;26.60;;;8.05;;
2289;SDS011;1153;47.986;7.898;2024-01-15T06:03:13;23.17;;;8.70;;
2289;SDS011;1153;47.986;7.898;2024-01-15T06:05:38;18.37;;;8.10;;
2289;SDS011;1153;47.986;7.898;2024-01-15T06:08:03;37.20;;;10.40;;
2289;SDS011;1153;47.986;7.898;2024-01-15T06:10:28;28.20;;;8.73;;
2289;SDS011;1153;47.986;7.898;2024-01-15T06:12:53;19.03;;;6.13;;
2289;SDS011;1153;47.986;7.898;2024-01-15T06:15:19;26.27;;;8.40;;
2289;SDS011;1153;47.986;7.898;2024-01-15T06:17:44;22.97;;;8.50;;
2289;SDS011;1153;47.986;7.898;2024-01-15T06:20:09;29.10;;;10.07;;
2289;SDS011;1153;47.986;7.898;2024-01-15T06:22:35;17.63;;;7.33;;
2289;SDS011;1153;47.986;7.898;2024-01-15T06:25:01;21.63;;;9.23;;
2289;SDS011;1153;47.986;7.898;2024-01-15T06:27:26;18.87;;;6.07;;
2289;SDS011;1153;47.986;7.898;2024-01-15T06:29:51;19.90;;;8.50;;
2289;SDS011;1153;47.986;7.898;2024-01-15T06:32:16;38.13;;;10.43;;
2289;SDS011;1153;47.986;7.898;2024-01-15T06:34:42;37.80;;;12.30;;
2289;SDS011;1153;47.986;7.898;2024-01-15T06:37:07;28.23;;;10.48;;
2289;SDS011;1153;47.986;7.898;2024-01-15T06:39:32;40.33;;;15.13;;
2289;SDS011;1153;47.986;7.898;2024-01-15T06:41:57;43.03;;;14.63;;
2289;SDS011;1153;47.986;7.898;2024-01-15T06:44:22;40.85;;;12.90;;
2289;SDS011;1153;47.986;7.898;2024-01-15T06:46:47;40.23;;;12.30;;
2289;SDS011;1153;47.986;7.898;2024-01-15T06:49:14;24.33;;;11.20;;
2289;SDS011;1153;47.986;7.898;2024-01-15T06:51:39;29.73;;;12.53;;
2289;SDS011;1153;47.986;7.898;2024-01-15T06:54:04;35.63;;;13.57;;
2289;SDS011;1153;47.986;7.898;2024-01-15T06:56:29;45.77;;;14.57;;
2289;SDS011;1153;47.986;7.898;2024-01-15T06:58:54;34.03;;;12.47;;
2289;SDS011;1153;47.986;7.898;2024-01-15T07:01:20;32.83;;;12.80;;
2289;SDS011;1153;47.986;7.898;2024-01-15T07:03:45;32.83;;;11.23;;
2289;SDS011;1153;47.986;7.898;2024-01-15T07:06:10;33.97;;;11.60;;
2289;SDS011;1153;47.986;7.898;2024-01-15T07:08:36;28.30;;;12.00;;
2289;SDS011;1153;47.986;7.898;2024-01-15T07:11:03;41.67;;;12.40;;
2289;SDS011;1153;47.986;7.898;2024-01-15T07:13:28;36.83;;;12.77;;
2289;SDS011;1153;47.986;7.898;2024-01-15T07:15:53;26.17;;;11.20;;
2289;SDS011;1153;47.986;7.898;2024-01-15T07:18:18;37.65;;;11.48;;
2289;SDS011;1153;47.986;7.898;2024-01-15T07:20:44;29.02;;;9.60;;
2289;SDS011;1153;47.986;7.898;2024-01-15T07:23:09;36.58;;;10.93;;
2289;SDS011;1153;47.986;7.898;2024-01-15T07:25:34;30.38;;;11.77;;
2289;SDS011;1153;47.986;7.898;2024-01-15T07:27:59;30.27;;;12.20;;
2289;SDS011;1153;47.986;7.898;2024-01-15T07:30:24;23.20;;;9.40;;
2289;SDS011;1153;47.986;7.898;2024-01-15T07:32:49;25.40;;;9.77;;
2289;SDS011;1153;47.986;7.898;2024-01-15T07:35:14;32.00;;;10.60;;
2289;SDS011;1153;47.986;7.898;2024-01-15T07:37:40;25.97;;;10.40;;
2289;SDS011;1153;47.986;7.898;2024-01-15T07:40:05;30.13;;;10.93;;
2289;SDS011;1153;47.986;7.898;2024-01-15T07:42:33;33.80;;;9.77;;
2289;SDS011;1153;47.986;7.898;2024-01-15T07:44:58;30.87;;;9.43;;
2289;SDS011;1153;47.986;7.898;2024-01-15T07:47:23;34.22;;;11.40;;
2289;SDS011;1153;47.986;7.898;2024-01-15T07:49:48;40.57;;;9.23;;
2289;SDS011;1153;47.986;7.898;2024-01-15T07:52:14;21.67;;;10.55;;
2289;SDS011;1153;47.986;7.898;2024-01-15T07:54:39;36.80;;;11.40;;
2289;SDS011;1153;47.986;7.898;2024-01-15T07:57:04;31.07;;;10.83;;
2289;SDS011;1153;47.986;7.898;2024-01-15T07:59:29;16.23;;;5.77;;
2289;SDS011;1153;47.986;7.898;2024-01-15T08:01:55;16.90;;;7.27;;
2289;SDS011;1153;47.986;7.898;2024-01-15T08:04:20;15.67;;;8.30;;
2289;SDS011;1153;47.986;7.898;2024-01-15T08:06:46;28.90;;;11.20;;
2289;SDS011;1153;47.986;7.898;2024-01-15T08:09:11;93.88;;;29.73;;
2289;SDS011;1153;47.986;7.898;2024-01-15T08:11:41;35.33;;;13.63;;
2289;SDS011;1153;47.986;7.898;2024-01-15T08:14:09;59.53;;;18.23;;
2289;SDS011;1153;47.986;7.898;2024-01-15T08:16:35;55.60;;;15.83;;
2289;SDS011;1153;47.986;7.898;2024-01-15T08:19:00;25.13;;;10.07;;
2289;SDS011;1153;47.986;7.898;2024-01-15T08:21:25;15.80;;;6.13;;
2289;SDS011;1153;47.986;7.898;2024-01-15T08:23:52;30.20;;;12.00;;
2289;SDS011;1153;47.986;7.898;2024-01-15T08:26:17;14.63;;;9.10;;
2289;SDS011;1153;47.986;7.898;2024-01-15T08:28:42;7.60;;;2.80;;
2289;SDS011;1153;47.986;7.898;2024-01-15T08:31:07;7.20;;;2.17;;
2289;SDS011;1153;47.986;7.898;2024-01-15T08:33:32;7.40;;;2.55;;
2289;SDS011;1153;47.986;7.898;2024-01-15T08:35:58;2.53;;;2.27;;
2289;SDS011;1153;47.986;7.898;2024-01-15T08:38:23;2.40;;;1.53;;
2289;SDS011;1153;47.986;7.898;2024-01-15T08:40:49;2.40;;;1.37;;
2289;SDS011;1153;47.986;7.898;2024-01-15T08:43:14;1.03;;;0.77;;
2289;SDS011;1153;47.986;7.898;2024-01-15T08:45:39;1.90;;;0.80;;
2289;SDS011;1153;47.986;7.898;2024-01-15T08:48:04;1.97;;;0.80;;
2289;SDS011;1153;47.986;7.898;2024-01-15T08:50:31;1.47;;;0.50;;
2289;SDS011;1153;47.986;7.898;2024-01-15T08:52:57;1.40;;;0.43;;
2289;SDS011;1153;47.986;7.898;2024-01-15T08:55:22;0.93;;;0.60;;
2289;SDS011;1153;47.986;7.898;2024-01-15T08:57:50;0.90;;;0.40;;
2289;SDS011;1153;47.986;7.898;2024-01-15T09:00:15;1.93;;;0.60;;
2289;SDS011;1153;47.986;7.898;2024-01-15T09:02:40;1.00;;;0.50;;
2289;SDS011;1153;47.986;7.898;2024-01-15T09:05:06;1.30;;;0.90;;
2289;SDS011;1153;47.986;7.898;2024-01-15T09:07:32;0.97;;;0.57;;
2289;SDS011;1153;47.986;7.898;2024-01-15T09:09:57;1.63;;;1.27;;
2289;SDS011;1153;47.986;7.898;2024-01-15T09:12:24;1.50;;;0.70;;
2289;SDS011;1153;47.986;7.898;2024-01-15T09:14:49;1.20;;;0.80;;
2289;SDS011;1153;47.986;7.898;2024-01-15T09:17:15;1.23;;;1.03;;
2289;SDS011;1153;47.986;7.898;2024-01-15T09:19:40;0.97;;;0.57;;
2289;SDS011;1153;47.986;7.898;2024-01-15T09:22:06;0.87;;;0.50;;
2289;SDS011;1153;47.986;7.898;2024-01-15T09:24:31;0.80;;;0.40;;
2289;SDS011;1153;47.986;7.898;2024-01-15T09:26:57;2.37;;;0.30;;
2289;SDS011;1153;47.986;7.898;2024-01-15T09:29:22;2.65;;;1.20;;
2289;SDS011;1153;47.986;7.898;2024-01-15T09:31:48;2.97;;;0.40;;
2289;SDS011;1153;47.986;7.898;2024-01-15T09:34:14;1.20;;;0.60;;
2289;SDS011;1153;47.986;7.898;2024-01-15T09:36:39;0.60;;;0.52;;
2289;SDS011;1153;47.986;7.898;2024-01-15T09:39:05;0.90;;;0.50;;
2289;SDS011;1153;47.986;7.898;2024-01-15T09:41:33;1.00;;;0.30;;
2289;SDS011;1153;47.986;7.898;2024-01-15T09:43:59;0.60;;;0.43;;
2289;SDS011;1153;47.986;7.898;2024-01-15T09:46:24;3.20;;;0.33;;
2289;SDS011;1153;47.986;7.898;2024-01-15T09:48:49;1.43;;;0.40;;
2289;SDS011;1153;47.986;7.898;2024-01-15T09:51:14;6.70;;;0.80;;
2289;SDS011;1153;47.986;7.898;2024-01-15T09:53:39;2.33;;;0.47;;
2289;SDS011;1153;47.986;7.898;2024-01-15T09:56:06;2.10;;;0.50;;
2289;SDS011;1153;47.986;7.898;2024-01-15T09:58:31;1.20;;;1.10;;
2289;SDS011;1153;47.986;7.898;2024-01-15T10:00:57;3.50;;;1.63;;
2289;SDS011;1153;47.986;7.898;2024-01-15T10:03:22;3.17;;;0.67;;
2289;SDS011;1153;47.986;7.898;2024-01-15T10:05:47;0.97;;;0.60;;
2289;SDS011;1153;47.986;7.898;2024-01-15T10:08:13;1.63;;;0.80;;
2289;SDS011;1153;47.986;7.898;2024-01-15T10:10:39;2.10;;;1.20;;
2289;SDS011;1153;47.986;7.898;2024-01-15T10:13:04;1.00;;;0.40;;
2289;SDS011;1153;47.986;7.898;2024-01-15T10:15:29;2.70;;;0.90;;
2289;SDS011;1153;47.986;7.898;2024-01-15T10:17:58;1.37;;;0.60;;
2289;SDS011;1153;47.986;7.898;2024-01-15T10:20:24;2.40;;;1.57;;
2289;SDS011;1153;47.986;7.898;2024-01-15T10:22:49;1.20;;;0.60;;
2289;SDS011;1153;47.986;7.898;2024-01-15T10:25:15;2.30;;;1.90;;
2289;SDS011;1153;47.986;7.898;2024-01-15T10:27:40;3.27;;;1.60;;
2289;SDS011;1153;47.986;7.898;2024-01-15T10:30:06;5.10;;;1.93;;
2289;SDS011;1153;47.986;7.898;2024-01-15T10:32:32;2.63;;;1.40;;
2289;SDS011;1153;47.986;7.898;2024-01-15T10:34:57;3.17;;;1.47;;
2289;SDS011;1153;47.986;7.898;2024-01-15T10:37:23;2.73;;;1.63;;
2289;SDS011;1153;47.986;7.898;2024-01-15T10:39:49;5.33;;;1.90;;
2289;SDS011;1153;47.986;7.898;2024-01-15T10:42:14;8.50;;;2.53;;
2289;SDS011;1153;47.986;7.898;2024-01-15T10:44:40;2.20;;;1.17;;
2289;SDS011;1153;47.986;7.898;2024-01-15T10:47:05;5.60;;;2.40;;
2289;SDS011;1153;47.986;7.898;2024-01-15T10:49:31;3.80;;;2.87;;
2289;SDS011;1153;47.986;7.898;2024-01-15T10:51:56;11.33;;;2.80;;
2289;SDS011;1153;47.986;7.898;2024-01-15T10:54:22;9.70;;;2.63;;
2289;SDS011;1153;47.986;7.898;2024-01-15T10:56:48;5.00;;;3.17;;
2289;SDS011;1153;47.986;7.898;2024-01-15T10:59:14;8.87;;;3.90;;
2289;SDS011;1153;47.986;7.898;2024-01-15T11:01:39;8.27;;;3.43;;
2289;SDS011;1153;47.986;7.898;2024-01-15T11:04:06;5.40;;;2.87;;
2289;SDS011;1153;47.986;7.898;2024-01-15T11:06:40;8.37;;;3.10;;
2289;SDS011;1153;47.986;7.898;2024-01-15T11:09:06;7.73;;;2.93;;
2289;SDS011;1153;47.986;7.898;2024-01-15T11:11:34;7.23;;;3.00;;
2289;SDS011;1153;47.986;7.898;2024-01-15T11:13:59;7.27;;;3.90;;
2289;SDS011;1153;47.986;7.898;2024-01-15T11:16:25;10.90;;;4.83;;
2289;SDS011;1153;47.986;7.898;2024-01-15T11:19:12;7.23;;;2.80;;
2289;SDS011;1153;47.986;7.898;2024-01-15T11:21:41;5.70;;;2.43;;
2289;SDS011;1153;47.986;7.898;2024-01-15T11:24:07;8.13;;;3.63;;
2289;SDS011;1153;47.986;7.898;2024-01-15T11:26:37;8.70;;;3.40;;
2289;SDS011;1153;47.986;7.898;2024-01-15T11:29:03;10.90;;;4.27;;
2289;SDS011;1153;47.986;7.898;2024-01-15T11:32:14;11.90;;;5.47;;
2289;SDS011;1153;47.986;7.898;2024-01-15T11:34:14;6.30;;;3.43;;
2289;SDS011;1153;47.986;7.898;2024-01-15T11:41:57;10.50;;;5.17;;
2289;SDS011;1153;47.986;7.898;2024-01-15T11:44:23;6.37;;;4.33;;
2289;SDS011;1153;47.986;7.898;2024-01-15T11:46:58;4.93;;;2.30;;
2289;SDS011;1153;47.986;7.898;2024-01-15T11:52:07;6.87;;;4.50;;
2289;SDS011;1153;47.986;7.898;2024-01-15T11:54:36;11.70;;;5.00;;
2289;SDS011;1153;47.986;7.898;2024-01-15T11:57:04;7.80;;;3.23;;
2289;SDS011;1153;47.986;7.898;2024-01-15T11:59:29;10.53;;;4.17;;
2289;SDS011;1153;47.986;7.898;2024-01-15T12:01:54;5.30;;;2.03;;
2289;SDS011;1153;47.986;7.898;2024-01-15T12:04:20;13.80;;;5.00;;
2289;SDS011;1153;47.986;7.898;2024-01-15T12:06:45;12.67;;;5.10;;
2289;SDS011;1153;47.986;7.898;2024-01-15T12:09:10;14.27;;;2.50;;
2289;SDS011;1153;47.986;7.898;2024-01-15T12:11:36;6.03;;;3.70;;
2289;SDS011;1153;47.986;7.898;2024-01-15T12:14:02;3.73;;;2.97;;
2289;SDS011;1153;47.986;7.898;2024-01-15T12:16:27;7.97;;;4.30;;
2289;SDS011;1153;47.986;7.898;2024-01-15T12:18:53;10.67;;;3.40;;
2289;SDS011;1153;47.986;7.898;2024-01-15T12:21:18;5.90;;;2.80;;
2289;SDS011;1153;47.986;7.898;2024-01-15T12:23:46;6.70;;;4.33;;
2289;SDS011;1153;47.986;7.898;2024-01-15T12:26:11;1.33;;;1.13;;
2289;SDS011;1153;47.986;7.898;2024-01-15T12:28:36;3.43;;;2.23;;
2289;SDS011;1153;47.986;7.898;2024-01-15T12:31:01;3.50;;;2.20;;
2289;SDS011;1153;47.986;7.898;2024-01-15T12:33:30;5.13;;;3.73;;
2289;SDS011;1153;47.986;7.898;2024-01-15T12:35:55;5.37;;;3.50;;
2289;SDS011;1153;47.986;7.898;2024-01-15T12:38:20;8.00;;;3.23;;
2289;SDS011;1153;47.986;7.898;2024-01-15T12:40:45;8.87;;;4.33;;
2289;SDS011;1153;47.986;7.898;2024-01-15T12:43:13;8.83;;;4.67;;
2289;SDS011;1153;47.986;7.898;2024-01-15T12:45:38;7.33;;;3.40;;
2289;SDS011;1153;47.986;7.898;2024-01-15T12:48:04;7.90;;;3.80;;
2289;SDS011;1153;47.986;7.898;2024-01-15T12:50:29;5.17;;;3.47;;
2289;SDS011;1153;47.986;7.898;2024-01-15T12:52:54;5.80;;;2.77;;
2289;SDS011;1153;47.986;7.898;2024-01-15T12:55:20;3.93;;;2.60;;
2289;SDS011;1153;47.986;7.898;2024-01-15T12:57:45;10.60;;;3.70;;
2289;SDS011;1153;47.986;7.898;2024-01-15T13:00:10;5.70;;;3.10;;
2289;SDS011;1153;47.986;7.898;2024-01-15T13:02:37;4.23;;;2.97;;
2289;SDS011;1153;47.986;7.898;2024-01-15T13:05:05;6.53;;;3.03;;
2289;SDS011;1153;47.986;7.898;2024-01-15T13:07:31;4.10;;;2.37;;
2289;SDS011;1153;47.986;7.898;2024-01-15T13:09:57;7.70;;;3.30;;
2289;SDS011;1153;47.986;7.898;2024-01-15T13:12:22;5.35;;;2.80;;
2289;SDS011;1153;47.986;7.898;2024-01-15T13:14:47;5.50;;;3.00;;
2289;SDS011;1153;47.986;7.898;2024-01-15T13:17:13;4.60;;;2.70;;
2289;SDS011;1153;47.986;7.898;2024-01-15T13:19:39;7.43;;;2.53;;
2289;SDS011;1153;47.986;7.898;2024-01-15T13:22:04;7.90;;;2.57;;
2289;SDS011;1153;47.986;7.898;2024-01-15T13:24:32;4.50;;;2.23;;
2289;SDS011;1153;47.986;7.898;2024-01-15T13:26:57;3.80;;;1.70;;
2289;SDS011;1153;47.986;7.898;2024-01-15T13:29:22;5.50;;;3.03;;
2289;SDS011;1153;47.986;7.898;2024-01-15T13:31:48;6.93;;;2.70;;
2289;SDS011;1153;47.986;7.898;2024-01-15T13:34:13;4.47;;;3.83;;
2289;SDS011;1153;47.986;7.898;2024-01-15T13:36:38;7.03;;;4.10;;
2289;SDS011;1153;47.986;7.898;2024-01-15T13:39:04;3.67;;;1.90;;
2289;SDS011;1153;47.986;7.898;2024-01-15T13:41:33;9.70;;;4.50;;
2289;SDS011;1153;47.986;7.898;2024-01-15T13:43:58;6.13;;;4.70;;
2289;SDS011;1153;47.986;7.898;2024-01-15T13:46:25;8.53;;;4.37;;
2289;SDS011;1153;47.986;7.898;2024-01-15T13:48:52;6.67;;;3.70;;
2289;SDS011;1153;47.986;7.898;2024-01-15T13:51:18;4.00;;;2.67;;
2289;SDS011;1153;47.986;7.898;2024-01-15T13:53:43;7.87;;;5.57;;
2289;SDS011;1153;47.986;7.898;2024-01-15T13:56:08;10.23;;;4.80;;
2289;SDS011;1153;47.986;7.898;2024-01-15T13:58:35;7.40;;;5.47;;
2289;SDS011;1153;47.986;7.898;2024-01-15T14:01:00;10.57;;;5.17;;
2289;SDS011;1153;47.986;7.898;2024-01-15T14:03:26;14.73;;;5.57;;
2289;SDS011;1153;47.986;7.898;2024-01-15T14:05:53;13.00;;;5.43;;
2289;SDS011;1153;47.986;7.898;2024-01-15T14:08:19;7.50;;;4.63;;
2289;SDS011;1153;47.986;7.898;2024-01-15T14:10:44;12.30;;;4.80;;
2289;SDS011;1153;47.986;7.898;2024-01-15T14:13:10;10.47;;;4.83;;
2289;SDS011;1153;47.986;7.898;2024-01-15T14:15:35;6.90;;;4.20;;
2289;SDS011;1153;47.986;7.898;2024-01-15T14:18:00;7.30;;;2.90;;
2289;SDS011;1153;47.986;7.898;2024-01-15T14:20:26;7.73;;;4.50;;
2289;SDS011;1153;47.986;7.898;2024-01-15T14:22:51;4.30;;;2.70;;
2289;SDS011;1153;47.986;7.898;2024-01-15T14:25:16;6.50;;;3.60;;
2289;SDS011;1153;47.986;7.898;2024-01-15T14:27:41;12.37;;;4.93;;
2289;SDS011;1153;47.986;7.898;2024-01-15T14:30:07;9.05;;;5.38;;
2289;SDS011;1153;47.986;7.898;2024-01-15T14:32:33;8.40;;;2.40;;
2289;SDS011;1153;47.986;7.898;2024-01-15T14:34:58;11.57;;;4.40;;
2289;SDS011;1153;47.986;7.898;2024-01-15T14:37:24;5.38;;;2.67;;
2289;SDS011;1153;47.986;7.898;2024-01-15T14:39:49;6.80;;;3.57;;
2289;SDS011;1153;47.986;7.898;2024-01-15T14:42:14;9.85;;;4.22;;
2289;SDS011;1153;47.986;7.898;2024-01-15T14:44:39;7.07;;;4.40;;
2289;SDS011;1153;47.986;7.898;2024-01-15T14:47:06;8.20;;;3.20;;
2289;SDS011;1153;47.986;7.898;2024-01-15T14:49:31;7.73;;;3.73;;
2289;SDS011;1153;47.986;7.898;2024-01-15T14:51:56;7.37;;;4.17;;
2289;SDS011;1153;47.986;7.898;2024-01-15T14:54:21;10.93;;;5.97;;
2289;SDS011;1153;47.986;7.898;2024-01-15T14:56:47;12.20;;;5.03;;
2289;SDS011;1153;47.986;7.898;2024-01-15T14:59:12;9.35;;;4.80;;
2289;SDS011;1153;47.986;7.898;2024-01-15T15:01:37;9.47;;;5.00;;